Mount Vernon, Illinois
Current Conditions -  °F | °C
As of 7:15 PM on Saturday 22 Nov 2014 (Local Time) from KMVN Reporting Station
Overcast Overcast  
Wind Chill: 54°   Ceiling: 9000
Heat Index: 54°   Visibility: 10mi
Dew Point: 43°   Wind: 6mph
Humidity: 67%   Direction: 170°S
Pressure: 30.01"   Gusts: NA
Location:  38.32°N, 88.9°W
Report Text: KMVN 230115Z AUTO 17005KT 10SM SCT065 OVC090 12/06 A3001 RMK AO1
Loading
Personal Weather Stations






























Interactive Weather Map New forecast layout! Learn more

10-Day Weather Forecast

Advertisements
Track Severe Weather on mobile